Time;durP1;ratioP1;P1;durP2;ratioP2;P2;SDS_P1;SDS_P2;PMS_P1;PMS_P2;Temp;Humidity;BMP_temperature;BMP_pressure;BME280_temperature;BME280_humidity;BME280_pressure;Samples;Min_cycle;Max_cycle;Signal;HPM_P1;HPM_P2
2023/12/23 00:05:23;;;;;;;53.90;42.38;;;6.10;85.50;;;;;;12637238;28;20036;-74
2023/12/23 00:11:25;;;;;;;51.38;46.05;;;6.10;85.40;;;;;;12620378;28;20040;-75
2023/12/23 00:17:27;;;;;;;46.55;38.55;;;6.10;85.30;;;;;;12654802;28;20028;-75
2023/12/23 00:23:55;;;;;;;61.58;45.08;;;6.20;85.30;;;;;;12654675;28;20028;-74
2023/12/23 00:29:57;;;;;;;59.75;53.45;;;6.00;85.40;;;;;;12636498;28;20031;-74
2023/12/23 00:35:58;;;;;;;51.75;42.63;;;6.20;85.30;;;;;;12636373;28;20028;-75
2023/12/23 00:42:00;;;;;;;52.30;39.65;;;6.10;85.50;;;;;;12636009;28;20036;-74
2023/12/23 00:48:03;;;;;;;49.97;40.78;;;5.90;85.30;;;;;;12635998;28;20034;-75
2023/12/23 00:54:05;;;;;;;55.20;49.17;;;5.70;85.60;;;;;;12653785;28;20024;-75
2023/12/23 01:00:07;;;;;;;43.83;39.15;;;5.90;85.70;;;;;;12635512;28;20036;-74
2023/12/23 01:06:09;;;;;;;45.08;37.88;;;6.10;85.40;;;;;;12635488;28;20024;-75
2023/12/23 01:12:11;;;;;;;54.13;45.25;;;6.10;83.80;;;;;;12653387;28;20465;-75
2023/12/23 01:18:12;;;;;;;49.58;44.17;;;5.80;84.70;;;;;;12653293;28;20050;-75
2023/12/23 01:24:14;;;;;;;49.58;37.17;;;5.60;85.20;;;;;;12653088;28;20039;-75
2023/12/23 01:30:15;;;;;;;49.63;41.78;;;5.80;85.30;;;;;;12658293;28;20449;-75
2023/12/23 01:36:17;;;;;;;54.47;47.78;;;5.70;85.40;;;;;;12662467;28;20028;-75
2023/12/23 01:42:18;;;;;;;43.75;37.92;;;5.70;85.30;;;;;;12644121;28;20035;-75
2023/12/23 01:48:22;;;;;;;48.03;37.80;;;5.80;85.30;;;;;;12643840;28;20031;-75
2023/12/23 01:54:24;;;;;;;45.95;40.13;;;5.70;85.10;;;;;;12662332;28;20028;-75
2023/12/23 02:00:26;;;;;;;54.17;48.33;;;5.80;85.10;;;;;;12660130;28;20357;-75
2023/12/23 02:06:28;;;;;;;49.42;44.00;;;5.60;85.20;;;;;;12626073;28;20044;-75
2023/12/23 02:12:36;;;;;;;44.05;39.58;;;5.60;85.30;;;;;;12626708;28;20058;-75
2023/12/23 02:18:40;;;;;;;49.47;41.83;;;5.50;85.00;;;;;;12660577;28;20036;-75
2023/12/23 02:24:42;;;;;;;44.75;40.25;;;5.60;85.10;;;;;;12660076;28;20040;-75
2023/12/23 02:30:46;;;;;;;42.40;37.90;;;5.40;84.80;;;;;;12641892;28;20036;-75
2023/12/23 02:36:47;;;;;;;40.92;34.78;;;5.50;85.10;;;;;;12641857;28;20342;-75
2023/12/23 02:42:50;;;;;;;56.22;47.30;;;5.70;84.60;;;;;;12659173;28;20043;-75
2023/12/23 02:48:52;;;;;;;51.60;46.22;;;5.70;84.90;;;;;;12641047;28;20429;-75
2023/12/23 02:54:53;;;;;;;46.35;40.20;;;5.80;85.00;;;;;;12640645;28;20035;-75
2023/12/23 03:00:55;;;;;;;39.22;34.80;;;5.80;84.70;;;;;;12640565;28;20364;-75
2023/12/23 03:06:56;;;;;;;53.83;48.55;;;5.60;84.60;;;;;;12658061;28;20030;-75
2023/12/23 03:12:58;;;;;;;39.58;35.42;;;5.70;84.40;;;;;;12639794;28;20040;-75
2023/12/23 03:19:00;;;;;;;55.47;50.13;;;5.70;84.10;;;;;;12640182;28;20036;-75
2023/12/23 03:25:02;;;;;;;57.17;51.10;;;5.70;84.10;;;;;;12639215;28;20028;-75
2023/12/23 03:31:04;;;;;;;61.25;55.65;;;5.60;83.40;;;;;;12639089;28;20027;-75
2023/12/23 03:37:05;;;;;;;55.33;49.70;;;5.30;84.20;;;;;;12656775;28;20344;-75
2023/12/23 03:43:07;;;;;;;65.00;58.53;;;5.30;84.10;;;;;;12638227;28;20055;-75
2023/12/23 03:49:09;;;;;;;59.00;53.22;;;5.30;84.20;;;;;;12638176;28;20036;-75
2023/12/23 03:55:12;;;;;;;57.88;52.28;;;5.00;84.40;;;;;;12637503;28;20028;-75
2023/12/23 04:01:16;;;;;;;59.03;53.35;;;5.00;84.70;;;;;;12655642;28;20352;-75
2023/12/23 04:07:18;;;;;;;46.90;42.00;;;5.20;84.60;;;;;;12637203;28;20036;-75
2023/12/23 04:13:20;;;;;;;77.13;69.25;;;5.20;84.90;;;;;;12637834;28;20024;-75
2023/12/23 04:19:22;;;;;;;58.22;52.78;;;4.90;84.90;;;;;;12636898;28;20344;-75
2023/12/23 04:25:23;;;;;;;44.25;39.72;;;5.00;84.90;;;;;;12654751;28;20032;-72
2023/12/23 04:31:25;;;;;;;66.88;60.10;;;5.10;85.00;;;;;;12636477;28;20020;-72
2023/12/23 04:37:27;;;;;;;65.43;58.47;;;4.90;84.60;;;;;;12654474;28;20031;-72
2023/12/23 04:43:30;;;;;;;76.70;69.32;;;4.70;84.40;;;;;;12636070;28;20035;-72
2023/12/23 04:49:33;;;;;;;86.85;77.85;;;4.40;84.40;;;;;;12635967;28;20035;-72
2023/12/23 04:55:34;;;;;;;66.20;58.97;;;4.30;85.20;;;;;;12635789;28;20036;-72
2023/12/23 05:01:36;;;;;;;65.80;58.75;;;4.30;85.10;;;;;;12653658;28;20039;-72
2023/12/23 05:07:37;;;;;;;58.25;52.55;;;4.40;85.40;;;;;;12663130;28;20107;-73
2023/12/23 05:13:39;;;;;;;56.25;50.83;;;4.60;85.30;;;;;;12663592;28;20035;-72
2023/12/23 05:19:43;;;;;;;56.85;51.20;;;4.60;85.10;;;;;;12628674;28;20036;-72
2023/12/23 05:25:45;;;;;;;68.97;61.35;;;4.70;85.40;;;;;;12662978;28;20047;-72
2023/12/23 05:31:47;;;;;;;55.72;50.05;;;4.60;84.90;;;;;;12644753;28;20429;-72
2023/12/23 05:37:49;;;;;;;73.25;66.63;;;4.40;84.90;;;;;;12644405;28;20436;-72
2023/12/23 05:43:50;;;;;;;69.10;61.28;;;4.50;85.30;;;;;;12662147;28;20035;-72
2023/12/23 05:49:52;;;;;;;51.58;46.15;;;4.70;85.00;;;;;;12661933;28;20025;-72
2023/12/23 05:55:53;;;;;;;68.15;61.45;;;4.50;84.90;;;;;;12660981;28;20039;-72
2023/12/23 06:01:55;;;;;;;70.75;63.85;;;4.20;85.30;;;;;;12640424;28;20035;-73
2023/12/23 06:07:58;;;;;;;57.10;51.83;;;4.20;85.40;;;;;;12640016;28;20024;-72
2023/12/23 06:13:59;;;;;;;66.22;60.15;;;4.20;85.40;;;;;;12622887;28;20044;-72
2023/12/23 06:20:01;;;;;;;94.38;78.30;;;4.30;85.00;;;;;;12657623;28;20032;-72
2023/12/23 06:26:03;;;;;;;77.88;69.65;;;4.20;85.10;;;;;;12639615;28;20063;-72
2023/12/23 06:32:04;;;;;;;76.55;68.88;;;4.10;85.40;;;;;;12657408;28;20059;-72
2023/12/23 06:38:06;;;;;;;57.45;51.72;;;4.00;85.10;;;;;;12639663;28;20036;-72
2023/12/23 06:44:08;;;;;;;59.05;53.63;;;3.90;85.40;;;;;;12655573;28;20028;-72
2023/12/23 06:50:10;;;;;;;47.95;43.10;;;4.00;85.60;;;;;;12656361;28;20024;-72
2023/12/23 06:56:11;;;;;;;86.88;73.13;;;4.10;85.50;;;;;;12613968;22;1408666;-72
2023/12/23 07:02:13;;;;;;;59.75;52.25;;;4.00;85.10;;;;;;12658457;28;20359;-72
2023/12/23 07:08:15;;;;;;;59.47;53.90;;;3.90;85.60;;;;;;12673708;28;20081;-72
2023/12/23 07:14:17;;;;;;;66.93;60.53;;;4.10;85.60;;;;;;12708593;28;20464;-72
2023/12/23 07:20:19;;;;;;;58.92;52.90;;;4.10;85.80;;;;;;12690361;28;20044;-72
2023/12/23 07:26:43;;;;;;;81.65;69.32;;;4.20;85.60;;;;;;12672579;28;20044;-72
2023/12/23 07:32:46;;;;;;;58.95;53.05;;;4.10;85.70;;;;;;12689428;28;20054;-72
2023/12/23 07:38:50;;;;;;;74.38;67.15;;;4.00;85.70;;;;;;12689405;28;20035;-72
2023/12/23 07:44:52;;;;;;;72.03;63.88;;;4.10;85.80;;;;;;12688923;28;20065;-72
2023/12/23 07:50:54;;;;;;;68.10;60.13;;;4.10;86.10;;;;;;12688955;28;20043;-72
2023/12/23 07:56:57;;;;;;;47.42;41.28;;;4.20;86.10;;;;;;12707061;28;20031;-72
2023/12/23 08:03:25;;;;;;;50.25;45.53;;;4.20;85.30;;;;;;12616646;28;20040;-73
2023/12/23 08:09:26;;;;;;;90.65;81.90;;;4.20;85.90;;;;;;12649896;28;20036;-72
2023/12/23 08:15:32;;;;;;;64.68;58.60;;;4.40;86.20;;;;;;12650314;28;20547;-72
2023/12/23 08:21:36;;;;;;;53.33;48.05;;;4.50;85.70;;;;;;12649362;28;20036;-73
2023/12/23 08:27:38;;;;;;;54.42;49.05;;;4.50;85.90;;;;;;12648862;28;20047;-73
2023/12/23 08:33:42;;;;;;;100.97;89.30;;;4.60;85.70;;;;;;12615251;28;20043;-73
2023/12/23 08:39:44;;;;;;;64.82;58.00;;;4.60;86.10;;;;;;12649221;28;20059;-72
2023/12/23 08:45:47;;;;;;;73.90;67.10;;;4.50;86.30;;;;;;12666100;28;20047;-72
2023/12/23 08:51:49;;;;;;;95.57;86.78;;;4.60;86.60;;;;;;12704509;28;20370;-72
2023/12/23 08:57:50;;;;;;;69.18;62.97;;;4.60;86.90;;;;;;12703308;28;20039;-72
2023/12/23 09:03:52;;;;;;;73.78;66.65;;;4.80;87.00;;;;;;12704218;28;20344;-72
2023/12/23 09:09:54;;;;;;;62.58;52.15;;;5.00;87.00;;;;;;12704047;28;20024;-72
2023/12/23 09:15:56;;;;;;;70.18;60.78;;;5.10;86.80;;;;;;12703950;28;20059;-72
2023/12/23 09:22:00;;;;;;;72.90;61.13;;;5.20;86.90;;;;;;12685730;28;20027;-72
2023/12/23 09:28:01;;;;;;;67.30;58.90;;;5.30;87.20;;;;;;12685550;28;20348;-72
2023/12/23 09:34:04;;;;;;;53.85;44.28;;;5.50;87.50;;;;;;12685584;28;20043;-72
2023/12/23 09:40:05;;;;;;;50.88;41.58;;;5.60;87.40;;;;;;12685318;28;20032;-74
2023/12/23 09:46:08;;;;;;;86.78;78.65;;;5.70;87.20;;;;;;12703219;28;20031;-74
2023/12/23 09:52:12;;;;;;;106.63;97.18;;;5.80;87.50;;;;;;12709450;28;20436;-74
2023/12/23 09:58:13;;;;;;;121.22;111.55;;;5.80;87.80;;;;;;12693898;28;20064;-74
2023/12/23 10:04:15;;;;;;;79.07;61.63;;;5.90;88.10;;;;;;12711843;28;20435;-74
2023/12/23 10:10:17;;;;;;;99.00;88.82;;;6.00;88.20;;;;;;12711680;28;20031;-74
2023/12/23 10:16:27;;;;;;;85.38;76.30;;;6.20;88.10;;;;;;12693544;28;20054;-74
2023/12/23 10:22:30;;;;;;;81.63;70.82;;;6.30;88.10;;;;;;12711683;28;20344;-74
2023/12/23 10:28:35;;;;;;;68.35;62.35;;;6.50;88.30;;;;;;12692903;28;20032;-74
2023/12/23 10:34:43;;;;;;;77.65;70.68;;;6.70;88.20;;;;;;12710330;28;20035;-74
2023/12/23 10:41:07;;;;;;;153.90;144.80;;;6.80;88.10;;;;;;12709611;28;20031;-74
2023/12/23 10:47:10;;;;;;;177.90;166.90;;;7.10;88.00;;;;;;12691427;28;20051;-73
2023/12/23 10:53:14;;;;;;;179.02;169.63;;;7.20;88.00;;;;;;12709695;28;20032;-73
2023/12/23 10:59:16;;;;;;;170.93;159.70;;;7.50;87.80;;;;;;12709010;28;20027;-72
2023/12/23 11:05:37;;;;;;;185.13;174.40;;;7.60;87.90;;;;;;12692591;28;20036;-71
2023/12/23 11:11:40;;;;;;;125.72;117.75;;;7.80;87.70;;;;;;12708808;28;20032;-71
2023/12/23 11:17:46;;;;;;;91.28;84.57;;;8.10;87.30;;;;;;12708439;28;20039;-71
2023/12/23 11:23:49;;;;;;;71.13;63.67;;;8.20;86.70;;;;;;12690148;28;20174;-71
2023/12/23 11:29:51;;;;;;;67.50;61.38;;;8.30;86.70;;;;;;12707704;28;20024;-71
2023/12/23 11:35:57;;;;;;;52.03;45.80;;;8.30;86.50;;;;;;12707607;28;20035;-71
2023/12/23 11:42:00;;;;;;;57.67;51.55;;;8.40;86.40;;;;;;12689167;28;20032;-72
2023/12/23 11:48:01;;;;;;;48.88;43.17;;;8.60;86.00;;;;;;12706894;28;20042;-71
2023/12/23 11:54:04;;;;;;;57.00;47.72;;;8.70;85.90;;;;;;12706731;28;20036;-72
2023/12/23 12:00:06;;;;;;;51.13;43.05;;;8.90;85.80;;;;;;12706353;28;20044;-71
2023/12/23 12:06:08;;;;;;;53.50;40.92;;;8.90;85.90;;;;;;12671028;28;20039;-71
2023/12/23 12:12:11;;;;;;;54.75;42.95;;;8.90;85.60;;;;;;12705502;28;20035;-73
2023/12/23 12:18:14;;;;;;;42.10;33.33;;;9.10;85.40;;;;;;12687520;28;20031;-73
2023/12/23 12:24:17;;;;;;;52.42;41.20;;;9.10;85.30;;;;;;12687000;28;20032;-73
2023/12/23 12:30:19;;;;;;;51.17;37.35;;;9.10;85.30;;;;;;12705182;28;20032;-73
2023/12/23 12:36:21;;;;;;;35.33;30.10;;;9.20;85.30;;;;;;12705018;28;20042;-74
2023/12/23 12:42:26;;;;;;;46.03;38.22;;;9.20;85.10;;;;;;12670274;28;20046;-74
2023/12/23 12:48:28;;;;;;;47.40;35.78;;;9.20;85.00;;;;;;12686599;28;20044;-74
2023/12/23 12:54:30;;;;;;;43.63;36.38;;;9.20;85.00;;;;;;12704479;28;20443;-73
2023/12/23 13:00:31;;;;;;;40.20;31.25;;;9.30;85.00;;;;;;12704317;28;20363;-71
2023/12/23 13:06:32;;;;;;;47.95;40.22;;;9.30;84.90;;;;;;12704143;28;20036;-73
2023/12/23 13:12:35;;;;;;;41.88;35.17;;;9.30;84.90;;;;;;12686043;28;20032;-73
2023/12/23 13:18:36;;;;;;;58.65;40.63;;;9.30;84.90;;;;;;12685879;28;20332;-73
2023/12/23 13:24:38;;;;;;;44.90;37.00;;;9.30;85.00;;;;;;12706479;28;20039;-73
2023/12/23 13:30:39;;;;;;;54.70;47.08;;;9.30;85.00;;;;;;12713607;28;20032;-73
2023/12/23 13:36:41;;;;;;;48.85;39.75;;;9.50;85.00;;;;;;12714099;28;20024;-74
2023/12/23 13:42:43;;;;;;;50.60;42.65;;;9.70;85.30;;;;;;12713053;28;20043;-74
2023/12/23 13:48:44;;;;;;;48.55;41.67;;;9.80;84.90;;;;;;12713600;28;20040;-73
2023/12/23 13:54:46;;;;;;;45.63;39.20;;;9.90;84.50;;;;;;12712545;28;20023;-73
2023/12/23 14:00:52;;;;;;;45.08;38.13;;;9.90;84.50;;;;;;12716196;28;20055;-73
2023/12/23 14:06:57;;;;;;;49.03;43.85;;;9.80;84.70;;;;;;12693566;28;20352;-73
2023/12/23 14:12:58;;;;;;;50.17;40.60;;;9.60;85.10;;;;;;12711544;28;20031;-73
2023/12/23 14:19:00;;;;;;;40.60;30.30;;;9.50;85.40;;;;;;12711241;28;20031;-74
2023/12/23 14:25:01;;;;;;;44.60;35.78;;;9.50;85.90;;;;;;12692937;28;20462;-73
2023/12/23 14:31:06;;;;;;;59.50;49.70;;;9.70;85.60;;;;;;12710829;28;20035;-74
2023/12/23 14:37:07;;;;;;;44.08;36.17;;;9.90;85.40;;;;;;12710270;28;20044;-74
2023/12/23 14:43:09;;;;;;;46.42;36.55;;;9.60;85.70;;;;;;12692741;28;20039;-74
2023/12/23 14:49:11;;;;;;;44.38;36.00;;;9.50;85.90;;;;;;12691953;28;20039;-73
2023/12/23 14:55:14;;;;;;;45.28;33.97;;;9.20;86.30;;;;;;12725879;22;20033;-73
2023/12/23 15:01:16;;;;;;;34.25;28.27;;;9.20;86.50;;;;;;12607262;28;20032;-74
2023/12/23 15:07:19;;;;;;;51.67;47.03;;;8.90;86.70;;;;;;12590716;28;20044;-74
2023/12/23 15:13:23;;;;;;;89.10;83.45;;;8.80;86.80;;;;;;12608333;28;20040;-74
2023/12/23 15:19:25;;;;;;;98.00;91.28;;;8.60;86.90;;;;;;12590212;28;20029;-74
2023/12/23 15:25:26;;;;;;;82.32;76.68;;;8.50;87.10;;;;;;12590292;28;20040;-74
2023/12/23 15:31:29;;;;;;;199.13;188.55;;;8.40;87.20;;;;;;12605976;28;20025;-74
2023/12/23 15:37:34;;;;;;;129.15;120.07;;;8.20;87.20;;;;;;12562214;28;20039;-74
2023/12/23 15:43:36;;;;;;;134.45;125.90;;;8.10;87.30;;;;;;12604398;28;20028;-74
2023/12/23 15:49:37;;;;;;;107.45;99.90;;;8.00;87.40;;;;;;12605688;28;20029;-74
2023/12/23 15:55:39;;;;;;;184.90;173.85;;;7.90;87.50;;;;;;12588368;28;20366;-73
2023/12/23 16:01:41;;;;;;;98.28;90.63;;;7.70;87.50;;;;;;12596739;28;20045;-73
2023/12/23 16:07:42;;;;;;;87.35;80.60;;;7.70;87.70;;;;;;12600950;28;20040;-74
2023/12/23 16:13:47;;;;;;;99.25;91.32;;;7.70;87.80;;;;;;12553512;28;20037;-73
2023/12/23 16:20:20;;;;;;;72.55;66.47;;;7.60;87.80;;;;;;12554797;28;20029;-74
2023/12/23 16:26:24;;;;;;;70.40;64.50;;;7.50;87.80;;;;;;12537113;28;20032;-74
2023/12/23 16:32:53;;;;;;;78.75;72.03;;;7.40;87.90;;;;;;12408965;28;20037;-74
2023/12/23 16:38:57;;;;;;;85.40;77.40;;;7.40;87.90;;;;;;12387909;28;20049;-74
2023/12/23 16:45:16;;;;;;;71.43;64.25;;;7.30;87.90;;;;;;12428901;28;20391;-74
2023/12/23 16:51:31;;;;;;;60.28;54.35;;;7.20;87.90;;;;;;12443702;28;20050;-74
2023/12/23 16:57:34;;;;;;;76.85;69.30;;;7.20;88.00;;;;;;12447436;28;20056;-74
2023/12/23 17:03:36;;;;;;;69.30;58.83;;;7.10;88.00;;;;;;12443659;28;20054;-74
2023/12/23 17:09:38;;;;;;;138.20;128.57;;;7.00;88.00;;;;;;12549786;28;20043;-74
2023/12/23 17:15:42;;;;;;;69.65;63.05;;;7.00;88.10;;;;;;12598628;28;20342;-74
2023/12/23 17:21:46;;;;;;;67.10;58.88;;;6.90;88.10;;;;;;12545580;28;20048;-74
2023/12/23 17:27:47;;;;;;;59.28;51.75;;;7.00;88.10;;;;;;12545305;28;20043;-74
2023/12/23 17:33:49;;;;;;;110.50;102.72;;;6.90;88.00;;;;;;12545766;28;20040;-74
2023/12/23 17:39:51;;;;;;;115.32;106.70;;;6.80;87.90;;;;;;12562617;28;20445;-74
2023/12/23 17:45:53;;;;;;;48.97;43.97;;;6.80;87.90;;;;;;12562294;28;20036;-74
2023/12/23 17:51:56;;;;;;;56.55;51.17;;;6.70;87.90;;;;;;12562841;28;20449;-74
2023/12/23 17:57:59;;;;;;;58.83;50.92;;;6.70;87.90;;;;;;12561587;28;20356;-74
2023/12/23 18:04:01;;;;;;;53.13;46.65;;;6.60;88.00;;;;;;12543653;28;20043;-71
2023/12/23 18:10:04;;;;;;;59.22;53.03;;;6.60;88.10;;;;;;12543932;28;20040;-71
2023/12/23 18:16:06;;;;;;;61.05;52.67;;;6.50;88.00;;;;;;12526732;28;20353;-71
2023/12/23 18:22:09;;;;;;;61.80;55.92;;;6.50;87.90;;;;;;12542870;28;20442;-71
2023/12/23 18:28:12;;;;;;;55.65;45.17;;;6.50;88.00;;;;;;12560298;28;20040;-71
2023/12/23 18:34:15;;;;;;;57.40;50.05;;;6.40;87.90;;;;;;12542402;28;20060;-72
2023/12/23 18:40:20;;;;;;;58.65;49.40;;;6.40;87.90;;;;;;12559759;28;20039;-71
2023/12/23 18:46:22;;;;;;;56.88;50.38;;;6.30;87.80;;;;;;12559431;28;20033;-71
2023/12/23 18:52:23;;;;;;;48.30;40.47;;;6.20;87.80;;;;;;12559108;28;20029;-71
2023/12/23 18:58:35;;;;;;;54.17;48.47;;;6.10;87.80;;;;;;12540618;28;20041;-72
2023/12/23 19:04:37;;;;;;;58.50;50.50;;;6.10;87.80;;;;;;12558777;28;20238;-71
2023/12/23 19:10:44;;;;;;;58.42;48.63;;;6.10;87.80;;;;;;12525220;28;20033;-72
2023/12/23 19:17:15;;;;;;;49.08;39.45;;;6.10;87.80;;;;;;12558031;28;20037;-71
2023/12/23 19:23:19;;;;;;;79.82;64.07;;;6.10;87.60;;;;;;12340297;28;20042;-74
2023/12/23 19:29:47;;;;;;;59.55;46.72;;;6.10;87.30;;;;;;12340318;28;20050;-74
2023/12/23 19:35:49;;;;;;;68.93;55.42;;;5.90;87.50;;;;;;12340194;28;20408;-74
2023/12/23 19:41:51;;;;;;;60.75;52.92;;;5.80;87.30;;;;;;12355902;28;20042;-74
2023/12/23 19:47:52;;;;;;;60.55;54.22;;;5.70;87.50;;;;;;12339454;28;20467;-74
2023/12/23 19:54:52;;;;;;;81.05;62.92;;;5.70;87.60;;;;;;12355352;28;20050;-74
2023/12/23 20:00:54;;;;;;;58.47;46.93;;;5.80;87.40;;;;;;12355710;28;20043;-74
2023/12/23 20:06:56;;;;;;;66.70;54.33;;;5.70;87.30;;;;;;12333855;28;20395;-74
2023/12/23 20:12:58;;;;;;;81.35;65.65;;;5.70;87.50;;;;;;12354699;28;20348;-74
2023/12/23 20:19:23;;;;;;;89.10;75.03;;;5.70;87.50;;;;;;12322542;28;20054;-74
2023/12/23 20:25:24;;;;;;;66.03;59.58;;;5.70;87.50;;;;;;12354035;28;20356;-74
2023/12/23 20:31:27;;;;;;;70.97;60.60;;;5.70;87.50;;;;;;12451200;28;20048;-74
2023/12/23 20:37:30;;;;;;;77.55;64.25;;;5.70;87.40;;;;;;12554279;28;20322;-74
2023/12/23 20:43:32;;;;;;;68.78;58.20;;;5.70;87.40;;;;;;12536636;28;20036;-74
2023/12/23 20:49:34;;;;;;;79.22;67.10;;;5.70;87.30;;;;;;12554155;28;20434;-74
2023/12/23 20:55:35;;;;;;;82.40;73.82;;;5.60;87.40;;;;;;12536204;28;20369;-74
2023/12/23 21:01:37;;;;;;;76.47;58.00;;;5.50;87.20;;;;;;12536401;28;20048;-74
2023/12/23 21:07:39;;;;;;;71.15;63.22;;;5.50;87.40;;;;;;12553740;28;20033;-74
2023/12/23 21:13:41;;;;;;;77.22;64.10;;;5.50;87.50;;;;;;12519962;28;20060;-74
2023/12/23 21:19:44;;;;;;;69.18;62.08;;;5.50;87.30;;;;;;12536210;28;20041;-74
2023/12/23 21:25:46;;;;;;;57.17;50.65;;;5.50;87.40;;;;;;12535564;28;20056;-74
2023/12/23 21:31:48;;;;;;;56.47;49.20;;;5.50;87.00;;;;;;12553152;28;20033;-74
2023/12/23 21:37:50;;;;;;;64.93;55.53;;;5.30;87.20;;;;;;12553686;28;20337;-74
2023/12/23 21:43:52;;;;;;;61.38;53.45;;;5.40;87.30;;;;;;12552779;28;20047;-74
2023/12/23 21:49:54;;;;;;;58.03;51.83;;;5.30;87.30;;;;;;12562676;28;20029;-74
2023/12/23 21:55:55;;;;;;;79.47;68.35;;;5.40;87.20;;;;;;12561835;28;20046;-74
2023/12/23 22:01:57;;;;;;;85.65;74.90;;;5.20;87.10;;;;;;12561667;28;20025;-75
2023/12/23 22:07:58;;;;;;;73.10;62.20;;;5.20;87.10;;;;;;12543615;28;20037;-75
2023/12/23 22:14:20;;;;;;;73.88;65.97;;;5.20;87.20;;;;;;12543366;28;20357;-75
2023/12/23 22:20:22;;;;;;;71.00;64.00;;;5.10;87.00;;;;;;12543022;28;20045;-75
2023/12/23 22:26:44;;;;;;;107.63;96.28;;;5.20;87.40;;;;;;12561159;28;20033;-75
2023/12/23 22:32:46;;;;;;;77.78;70.13;;;5.30;87.00;;;;;;12560249;28;20354;-74
2023/12/23 22:38:49;;;;;;;66.18;58.92;;;5.10;87.20;;;;;;12559974;28;20449;-74
2023/12/23 22:44:50;;;;;;;56.95;51.00;;;5.20;87.40;;;;;;12541819;28;20037;-75
2023/12/23 22:50:52;;;;;;;54.20;48.28;;;5.20;87.30;;;;;;12559399;28;20033;-74
2023/12/23 22:56:53;;;;;;;48.65;43.53;;;5.20;87.40;;;;;;12581940;23;20446;-74
2023/12/23 23:03:03;;;;;;;38.60;30.10;;;5.20;87.20;;;;;;12608680;28;20032;-74
2023/12/23 23:09:05;;;;;;;66.82;59.67;;;5.30;87.20;;;;;;12608130;28;20041;-74
2023/12/23 23:15:08;;;;;;;50.50;45.33;;;5.20;87.10;;;;;;12607749;28;20445;-74
2023/12/23 23:21:09;;;;;;;59.60;52.58;;;5.20;87.10;;;;;;12607575;28;20349;-74
2023/12/23 23:27:11;;;;;;;62.78;55.47;;;5.10;87.20;;;;;;12607224;28;20040;-74
2023/12/23 23:33:15;;;;;;;72.90;65.43;;;5.10;87.20;;;;;;12589307;28;20025;-74
2023/12/23 23:39:17;;;;;;;70.82;63.60;;;5.10;87.30;;;;;;12606664;28;20457;-74
2023/12/23 23:45:36;;;;;;;56.05;49.13;;;5.10;87.40;;;;;;12606325;28;20032;-74
2023/12/23 23:51:38;;;;;;;53.65;46.38;;;5.20;87.40;;;;;;12607092;28;20333;-74
2023/12/23 23:57:41;;;;;;;69.25;62.60;;;5.10;87.20;;;;;;12588014;28;20043;-74
